createdAt,value
2023-01-19T00:00:55.266Z,2.65
2023-01-19T00:03:22.036Z,2.38
2023-01-19T00:08:16.771Z,2.22
2023-01-19T00:10:46.258Z,3.20
2023-01-19T00:13:13.787Z,2.72
2023-01-19T00:15:42.757Z,2.33
2023-01-19T00:18:11.712Z,3.05
2023-01-19T00:20:40.233Z,3.08
2023-01-19T00:23:10.213Z,3.35
2023-01-19T00:25:44.293Z,3.63
2023-01-19T00:28:12.814Z,2.38
2023-01-19T00:30:40.168Z,2.92
2023-01-19T00:33:07.040Z,3.78
2023-01-19T00:35:34.994Z,3.85
2023-01-19T00:38:02.031Z,3.63
2023-01-19T00:40:28.808Z,3.85
2023-01-19T00:45:24.480Z,2.80
2023-01-19T00:47:57.186Z,3.05
2023-01-19T00:50:25.313Z,3.10
2023-01-19T00:52:53.917Z,3.08
2023-01-19T00:55:21.103Z,2.88
2023-01-19T00:57:48.131Z,3.42
2023-01-19T01:00:17.542Z,3.13
2023-01-19T01:02:44.986Z,3.13
2023-01-19T01:05:14.049Z,3.83
2023-01-19T01:07:41.972Z,3.33
2023-01-19T01:10:13.729Z,3.25
2023-01-19T01:12:41.339Z,3.20
2023-01-19T01:15:23.425Z,4.10
2023-01-19T01:20:27.097Z,3.42
2023-01-19T01:22:54.810Z,3.47
2023-01-19T01:25:23.693Z,3.75
2023-01-19T01:27:51.224Z,3.30
2023-01-19T01:30:19.192Z,3.17
2023-01-19T01:32:45.947Z,3.35
2023-01-19T01:35:13.915Z,3.80
2023-01-19T01:37:43.427Z,3.75
2023-01-19T01:40:15.128Z,3.53
2023-01-19T01:42:43.229Z,4.13
2023-01-19T01:45:41.273Z,3.33
2023-01-19T01:48:14.706Z,4.45
2023-01-19T01:51:24.783Z,4.28
2023-01-19T01:54:16.810Z,3.95
2023-01-19T01:56:48.410Z,4.13
2023-01-19T01:59:26.036Z,4.00
2023-01-19T02:02:20.533Z,3.80
2023-01-19T02:04:54.306Z,3.63
2023-01-19T02:07:48.953Z,4.38
2023-01-19T02:10:36.919Z,3.42
2023-01-19T02:13:20.085Z,3.42
2023-01-19T02:15:52.833Z,3.42
2023-01-19T02:21:00.355Z,2.00
2023-01-19T02:23:44.583Z,4.65
2023-01-19T02:26:17.064Z,4.45
2023-01-19T02:28:50.392Z,5.03
2023-01-19T02:31:18.293Z,4.00
2023-01-19T02:33:45.364Z,5.32
2023-01-19T02:36:15.535Z,3.65
2023-01-19T02:38:44.746Z,3.65
2023-01-19T02:41:17.117Z,3.33
2023-01-19T02:43:45.294Z,4.88
2023-01-19T02:46:13.994Z,3.75
2023-01-19T02:48:40.916Z,5.07
2023-01-19T02:51:17.593Z,5.82
2023-01-19T02:53:49.997Z,4.15
2023-01-19T02:56:41.897Z,5.15
2023-01-19T02:59:38.921Z,4.78
2023-01-19T03:02:36.938Z,5.63
2023-01-19T03:05:26.042Z,5.15
2023-01-19T03:08:13.379Z,5.53
2023-01-19T03:11:02.724Z,6.25
2023-01-19T03:13:47.328Z,6.18
2023-01-19T03:16:22.886Z,3.90
2023-01-19T03:19:00.038Z,6.32
2023-01-19T03:21:29.937Z,6.40
2023-01-19T03:24:02.049Z,6.35
2023-01-19T03:26:34.754Z,3.90
2023-01-19T03:29:03.245Z,4.35
2023-01-19T03:31:33.501Z,5.30
2023-01-19T03:34:05.926Z,6.50
2023-01-19T03:36:37.638Z,4.75
2023-01-19T03:39:07.922Z,5.30
2023-01-19T03:41:36.768Z,6.13
2023-01-19T03:44:08.117Z,6.53
2023-01-19T03:46:35.080Z,4.45
2023-01-19T03:49:02.096Z,6.10
2023-01-19T03:51:29.111Z,6.63
2023-01-19T03:53:55.942Z,6.45
2023-01-19T03:58:51.825Z,6.68
2023-01-19T04:01:23.264Z,5.53
2023-01-19T04:03:53.127Z,5.57
2023-01-19T04:06:20.782Z,6.20
2023-01-19T04:08:49.291Z,5.18
2023-01-19T04:11:16.410Z,6.15
2023-01-19T04:13:43.565Z,5.47
2023-01-19T04:16:11.420Z,3.80
2023-01-19T04:18:38.582Z,3.90
2023-01-19T04:23:33.894Z,3.38
2023-01-19T04:26:03.182Z,2.83
2023-01-19T04:28:30.227Z,3.10
2023-01-19T04:30:57.683Z,3.53
2023-01-19T04:33:27.440Z,3.53
2023-01-19T04:35:54.798Z,4.35
2023-01-19T04:38:26.127Z,3.55
2023-01-19T04:40:54.234Z,3.95
2023-01-19T04:43:22.621Z,4.03
2023-01-19T04:45:50.618Z,3.40
2023-01-19T04:48:19.056Z,4.00
2023-01-19T04:50:49.670Z,3.35
2023-01-19T04:53:18.516Z,5.00
2023-01-19T04:55:45.232Z,5.78
2023-01-19T04:58:12.648Z,4.25
2023-01-19T05:00:39.388Z,4.00
2023-01-19T05:03:06.534Z,5.13
2023-01-19T05:05:35.280Z,5.45
2023-01-19T05:08:02.058Z,6.35
2023-01-19T05:12:56.137Z,4.93
2023-01-19T05:15:23.493Z,5.55
2023-01-19T05:17:51.361Z,4.68
2023-01-19T05:20:19.356Z,3.90
2023-01-19T05:22:53.829Z,4.70
2023-01-19T05:25:20.690Z,4.95
2023-01-19T05:30:15.592Z,4.47
2023-01-19T05:32:42.340Z,2.85
2023-01-19T05:35:09.751Z,5.00
2023-01-19T05:37:40.399Z,4.68
2023-01-19T05:40:08.496Z,3.92
2023-01-19T05:42:36.137Z,3.47
2023-01-19T05:45:03.399Z,3.67
2023-01-19T05:47:31.919Z,2.42
2023-01-19T05:49:59.225Z,2.20
2023-01-19T05:52:26.348Z,2.92
2023-01-19T05:54:55.170Z,4.13
2023-01-19T05:57:22.796Z,3.65
2023-01-19T05:59:53.151Z,2.03
2023-01-19T06:02:20.319Z,3.72
2023-01-19T06:04:47.010Z,4.22
2023-01-19T06:07:15.937Z,3.92
2023-01-19T06:09:42.850Z,2.80
2023-01-19T06:12:09.612Z,2.58
2023-01-19T06:14:40.972Z,3.28
2023-01-19T06:17:08.720Z,3.17
2023-01-19T06:19:35.495Z,3.75
2023-01-19T06:22:02.882Z,3.00
2023-01-19T06:24:33.081Z,3.13
2023-01-19T06:27:02.980Z,3.72
2023-01-19T06:29:30.191Z,4.13
2023-01-19T06:31:58.291Z,3.47
2023-01-19T06:34:28.898Z,4.13
2023-01-19T06:36:56.531Z,4.10
2023-01-19T06:39:24.215Z,3.25
2023-01-19T06:41:51.848Z,4.40
2023-01-19T06:44:18.686Z,3.22
2023-01-19T06:46:46.001Z,3.95
2023-01-19T06:49:13.283Z,3.67
2023-01-19T06:51:40.300Z,2.95
2023-01-19T06:54:08.395Z,4.00
2023-01-19T06:56:38.542Z,4.28
2023-01-19T06:59:06.593Z,4.30
2023-01-19T07:01:34.596Z,4.72
2023-01-19T07:04:04.459Z,3.92
2023-01-19T07:06:31.595Z,4.63
2023-01-19T07:09:00.566Z,4.75
2023-01-19T07:11:32.782Z,4.32
2023-01-19T07:14:00.143Z,5.00
2023-01-19T07:16:28.571Z,4.88
2023-01-19T07:18:56.132Z,4.25
2023-01-19T07:21:28.258Z,4.45
2023-01-19T07:23:56.382Z,4.47
2023-01-19T07:26:25.173Z,5.03
2023-01-19T07:28:58.290Z,5.15
2023-01-19T07:31:25.465Z,5.18
2023-01-19T07:33:53.061Z,4.28
2023-01-19T07:36:20.099Z,5.13
2023-01-19T07:38:47.908Z,4.50
2023-01-19T07:41:17.695Z,5.75
2023-01-19T07:43:45.658Z,5.50
2023-01-19T07:46:16.809Z,4.75
2023-01-19T07:48:48.474Z,4.32
2023-01-19T07:51:29.463Z,4.22
2023-01-19T07:53:57.423Z,4.72
2023-01-19T07:56:27.409Z,4.60
2023-01-19T07:58:57.178Z,4.80
2023-01-19T08:01:24.598Z,5.25
2023-01-19T08:03:55.347Z,4.95
2023-01-19T08:06:27.499Z,5.18
2023-01-19T08:08:57.379Z,4.80
2023-01-19T08:11:25.000Z,5.18
2023-01-19T08:13:52.153Z,4.93
2023-01-19T08:16:19.395Z,4.28
2023-01-19T08:18:51.666Z,5.10
2023-01-19T08:21:18.843Z,5.07
2023-01-19T08:23:52.202Z,3.40
2023-01-19T08:26:29.291Z,4.18
2023-01-19T08:28:58.997Z,4.47
2023-01-19T08:31:26.634Z,5.13
2023-01-19T08:33:53.916Z,4.13
2023-01-19T08:36:22.640Z,3.75
2023-01-19T08:38:49.837Z,5.03
2023-01-19T08:41:17.184Z,5.90
2023-01-19T08:43:45.495Z,4.80
2023-01-19T08:46:16.900Z,4.80
2023-01-19T08:48:45.305Z,4.35
2023-01-19T08:51:12.779Z,2.97
2023-01-19T08:53:39.665Z,3.35
2023-01-19T08:58:40.687Z,4.40
2023-01-19T09:01:08.721Z,3.95
2023-01-19T09:03:36.516Z,4.75
2023-01-19T09:06:11.241Z,4.28
2023-01-19T09:08:38.498Z,4.43
2023-01-19T09:11:07.731Z,3.08
2023-01-19T09:13:34.709Z,3.45
2023-01-19T09:16:03.846Z,3.00
2023-01-19T09:18:30.746Z,3.45
2023-01-19T09:20:57.985Z,3.55
2023-01-19T09:23:25.639Z,4.45
2023-01-19T09:25:57.841Z,3.50
2023-01-19T09:28:24.711Z,4.15
2023-01-19T09:30:51.856Z,2.85
2023-01-19T09:33:19.798Z,3.38
2023-01-19T09:35:48.628Z,5.55
2023-01-19T09:38:16.885Z,4.07
2023-01-19T09:40:52.024Z,4.50
2023-01-19T09:43:37.829Z,2.70
2023-01-19T09:46:15.590Z,4.10
2023-01-19T09:48:52.421Z,2.75
2023-01-19T09:51:23.212Z,5.32
2023-01-19T09:54:14.966Z,3.70
2023-01-19T09:56:43.342Z,2.97
2023-01-19T09:59:25.219Z,3.85
2023-01-19T10:02:17.018Z,2.80
2023-01-19T10:05:02.860Z,2.72
2023-01-19T10:07:33.025Z,3.40
2023-01-19T10:10:05.788Z,3.03
2023-01-19T10:15:31.055Z,2.58
2023-01-19T10:18:16.414Z,2.60
2023-01-19T10:20:52.142Z,2.80
2023-01-19T10:23:43.792Z,3.42
2023-01-19T10:26:27.100Z,2.33
2023-01-19T10:29:08.077Z,3.15
2023-01-19T10:31:39.200Z,2.33
2023-01-19T10:34:06.101Z,2.47
2023-01-19T10:36:38.357Z,3.55
2023-01-19T10:39:12.972Z,2.72
2023-01-19T10:41:49.161Z,3.78
2023-01-19T10:44:34.124Z,3.50
2023-01-19T10:47:02.228Z,4.32
2023-01-19T10:49:35.513Z,3.40
2023-01-19T10:52:03.222Z,3.45
2023-01-19T10:54:32.704Z,2.90
2023-01-19T10:57:03.634Z,3.40
2023-01-19T10:59:46.547Z,2.97
2023-01-19T11:02:26.768Z,3.72
2023-01-19T11:05:15.261Z,2.55
2023-01-19T11:07:42.546Z,2.78
2023-01-19T11:10:21.319Z,3.42
2023-01-19T11:12:55.772Z,3.35
2023-01-19T11:15:22.825Z,3.47
2023-01-19T11:17:52.822Z,2.92
2023-01-19T11:20:46.014Z,3.35
2023-01-19T11:23:25.810Z,4.50
2023-01-19T11:25:55.019Z,2.65
2023-01-19T11:28:28.346Z,4.22
2023-01-19T11:31:11.967Z,4.18
2023-01-19T11:33:49.765Z,3.75
2023-01-19T11:36:29.183Z,3.03
2023-01-19T11:39:24.337Z,2.80
2023-01-19T11:42:01.691Z,2.88
2023-01-19T11:44:32.947Z,3.50
2023-01-19T11:47:02.972Z,2.22
2023-01-19T11:50:23.995Z,2.90
2023-01-19T11:53:06.260Z,3.03
2023-01-19T11:55:51.651Z,3.13
2023-01-19T11:58:19.797Z,2.17
2023-01-19T12:01:02.285Z,3.10
2023-01-19T12:03:39.002Z,3.83
2023-01-19T12:06:20.542Z,3.35
2023-01-19T12:08:56.002Z,3.47
2023-01-19T12:11:37.749Z,3.70
2023-01-19T12:14:07.861Z,3.08
2023-01-19T12:16:38.000Z,3.53
2023-01-19T12:19:16.859Z,3.72
2023-01-19T12:21:48.210Z,2.40
2023-01-19T12:24:17.756Z,3.00
2023-01-19T12:26:56.111Z,3.78
2023-01-19T12:29:27.346Z,2.65
2023-01-19T12:32:18.821Z,4.10
2023-01-19T12:34:50.219Z,3.60
2023-01-19T12:37:38.102Z,4.32
2023-01-19T12:40:29.307Z,2.80
2023-01-19T12:43:05.570Z,3.35
2023-01-19T12:45:35.603Z,2.35
2023-01-19T12:48:05.486Z,2.53
2023-01-19T12:50:40.433Z,2.22
2023-01-19T12:53:20.567Z,3.38
2023-01-19T12:56:00.206Z,3.05
2023-01-19T12:58:27.725Z,2.97
2023-01-19T13:01:21.583Z,3.78
2023-01-19T13:04:27.392Z,2.75
2023-01-19T13:06:55.643Z,2.35
2023-01-19T13:09:30.195Z,2.65
2023-01-19T13:12:18.455Z,3.55
2023-01-19T13:14:46.667Z,3.47
2023-01-19T13:17:28.356Z,3.47
2023-01-19T13:20:03.604Z,3.50
2023-01-19T13:23:08.076Z,3.78
2023-01-19T13:25:36.376Z,4.03
2023-01-19T13:28:10.675Z,2.88
2023-01-19T13:30:46.675Z,3.30
2023-01-19T13:33:29.463Z,3.58
2023-01-19T13:35:59.509Z,3.42
2023-01-19T13:38:28.836Z,3.60
2023-01-19T13:41:00.417Z,3.40
2023-01-19T13:43:35.386Z,3.33
2023-01-19T13:46:06.468Z,3.03
2023-01-19T13:48:34.131Z,3.50
2023-01-19T13:51:10.313Z,2.65
2023-01-19T13:53:37.417Z,3.05
2023-01-19T13:56:10.099Z,2.97
2023-01-19T13:58:37.447Z,3.47
2023-01-19T14:01:06.716Z,3.40
2023-01-19T14:03:33.834Z,3.33
2023-01-19T14:06:01.093Z,3.47
2023-01-19T14:08:28.070Z,3.28
2023-01-19T14:10:56.782Z,3.90
2023-01-19T14:13:25.323Z,3.53
2023-01-19T14:15:57.879Z,4.07
2023-01-19T14:18:31.821Z,3.97
2023-01-19T14:21:04.597Z,3.63
2023-01-19T14:23:37.873Z,2.17
2023-01-19T14:26:05.723Z,2.90
2023-01-19T14:28:35.775Z,3.55
2023-01-19T14:31:27.131Z,3.47
2023-01-19T14:33:56.311Z,3.78
2023-01-19T14:36:44.438Z,4.32
2023-01-19T14:39:24.819Z,3.40
2023-01-19T14:41:53.775Z,5.65
2023-01-19T14:44:33.157Z,3.13
2023-01-19T14:47:03.175Z,3.15
2023-01-19T14:49:39.140Z,3.70
2023-01-19T14:52:23.309Z,2.95
2023-01-19T14:54:53.017Z,3.47
2023-01-19T14:57:20.965Z,2.50
2023-01-19T14:59:50.533Z,3.70
2023-01-19T15:02:21.074Z,2.83
2023-01-19T15:04:48.459Z,2.80
2023-01-19T15:07:19.684Z,5.22
2023-01-19T15:09:48.307Z,4.68
2023-01-19T15:12:18.112Z,4.38
2023-01-19T15:14:47.226Z,4.38
2023-01-19T15:17:18.768Z,4.40
2023-01-19T15:19:46.477Z,4.20
2023-01-19T15:22:13.922Z,4.13
2023-01-19T15:24:41.494Z,2.80
2023-01-19T15:27:13.197Z,3.97
2023-01-19T15:29:43.047Z,2.75
2023-01-19T15:32:16.941Z,2.28
2023-01-19T15:34:44.691Z,2.85
2023-01-19T15:37:12.507Z,4.25
2023-01-19T15:39:40.034Z,3.00
2023-01-19T15:42:13.196Z,4.30
2023-01-19T15:44:40.360Z,4.43
2023-01-19T15:47:07.420Z,4.10
2023-01-19T15:49:35.148Z,4.15
2023-01-19T15:52:01.976Z,3.92
2023-01-19T15:54:28.955Z,4.78
2023-01-19T15:56:55.853Z,4.50
2023-01-19T16:01:51.099Z,3.35
2023-01-19T16:04:18.218Z,3.40
2023-01-19T16:06:45.122Z,4.65
2023-01-19T16:09:16.813Z,3.65
2023-01-19T16:11:47.792Z,5.28
2023-01-19T16:16:46.158Z,4.50
2023-01-19T16:19:15.791Z,3.67
2023-01-19T16:21:44.004Z,4.85
2023-01-19T16:24:10.709Z,5.10
2023-01-19T16:26:37.808Z,5.05
2023-01-19T16:29:09.909Z,4.65
2023-01-19T16:31:38.915Z,4.30
2023-01-19T16:34:06.129Z,5.60
2023-01-19T16:36:34.921Z,4.85
2023-01-19T16:39:05.644Z,5.65
2023-01-19T16:41:36.783Z,3.20
2023-01-19T16:44:04.041Z,6.25
2023-01-19T16:46:35.265Z,5.90
2023-01-19T16:49:07.218Z,3.72
2023-01-19T16:51:34.099Z,4.35
2023-01-19T16:56:28.128Z,3.80
2023-01-19T16:58:57.136Z,3.95
2023-01-19T17:01:25.636Z,4.30
2023-01-19T17:03:52.697Z,4.90
2023-01-19T17:06:24.503Z,4.85
2023-01-19T17:08:55.043Z,3.40
2023-01-19T17:11:25.154Z,3.65
2023-01-19T17:13:58.074Z,4.95
2023-01-19T17:18:52.848Z,4.10
2023-01-19T17:21:20.508Z,5.32
2023-01-19T17:23:49.603Z,5.10
2023-01-19T17:30:35.465Z,4.68
2023-01-19T17:33:49.114Z,4.05
2023-01-19T17:36:22.416Z,3.78
2023-01-19T17:38:50.776Z,2.88
2023-01-19T17:41:22.352Z,2.72
2023-01-19T17:43:53.342Z,2.50
2023-01-19T17:46:23.427Z,3.65
2023-01-19T17:48:55.785Z,2.33
2023-01-19T17:51:23.444Z,2.80
2023-01-19T17:53:51.179Z,2.92
2023-01-19T17:56:23.606Z,2.08
2023-01-19T17:58:50.347Z,2.33
2023-01-19T18:01:22.279Z,3.47
2023-01-19T18:03:49.175Z,3.05
2023-01-19T18:06:16.722Z,2.35
2023-01-19T18:08:46.353Z,3.13
2023-01-19T18:11:14.635Z,3.22
2023-01-19T18:13:44.204Z,3.55
2023-01-19T18:16:15.360Z,2.58
2023-01-19T18:18:44.290Z,2.22
2023-01-19T18:21:13.444Z,3.03
2023-01-19T18:23:40.725Z,2.30
2023-01-19T18:26:10.402Z,2.60
2023-01-19T18:28:37.748Z,2.05
2023-01-19T18:31:08.803Z,3.35
2023-01-19T18:33:36.491Z,2.95
2023-01-19T18:36:04.040Z,3.67
2023-01-19T18:38:31.668Z,3.47
2023-01-19T18:41:09.048Z,3.50
2023-01-19T18:43:36.627Z,3.08
2023-01-19T18:46:03.807Z,3.55
2023-01-19T18:48:30.873Z,3.90
2023-01-19T18:53:25.835Z,3.85
2023-01-19T18:55:55.740Z,4.30
2023-01-19T18:58:23.242Z,3.72
2023-01-19T19:00:51.078Z,4.78
2023-01-19T19:03:17.817Z,4.80
2023-01-19T19:05:44.716Z,4.22
2023-01-19T19:10:42.741Z,4.82
2023-01-19T19:13:12.841Z,5.35
2023-01-19T19:17:02.295Z,5.90
2023-01-19T19:19:29.506Z,4.82
2023-01-19T19:21:57.305Z,4.93
2023-01-19T19:24:24.424Z,5.00
2023-01-19T19:29:18.517Z,3.42
2023-01-19T19:31:46.464Z,5.05
2023-01-19T19:34:14.410Z,4.05
2023-01-19T19:36:42.289Z,6.18
2023-01-19T19:39:09.241Z,5.15
2023-01-19T19:41:39.115Z,5.55
2023-01-19T19:44:05.929Z,4.93
2023-01-19T19:46:34.655Z,4.93
2023-01-19T19:49:01.717Z,5.68
2023-01-19T19:51:28.834Z,6.05
2023-01-19T19:54:00.148Z,5.88
2023-01-19T19:56:29.672Z,6.03
2023-01-19T19:58:59.076Z,4.55
2023-01-19T20:01:33.679Z,4.90
2023-01-19T20:04:12.795Z,4.88
2023-01-19T20:06:49.903Z,5.20
2023-01-19T20:09:17.636Z,5.03
2023-01-19T20:11:49.363Z,4.63
2023-01-19T20:14:17.584Z,5.32
2023-01-19T20:16:44.658Z,4.97
2023-01-19T20:19:11.431Z,4.53
2023-01-19T20:21:42.374Z,5.15
2023-01-19T20:24:14.649Z,5.50
2023-01-19T20:26:53.028Z,6.18
2023-01-19T20:29:27.993Z,6.45
2023-01-19T20:32:04.107Z,5.63
2023-01-19T20:34:33.631Z,4.82
2023-01-19T20:37:01.932Z,5.53
2023-01-19T20:39:33.158Z,4.72
2023-01-19T20:42:01.899Z,5.95
2023-01-19T20:44:29.186Z,4.70
2023-01-19T20:47:00.017Z,4.93
2023-01-19T20:49:27.654Z,3.92
2023-01-19T20:51:55.254Z,4.97
2023-01-19T20:54:26.314Z,3.63
2023-01-19T20:56:53.684Z,5.55
2023-01-19T20:59:20.564Z,5.55
2023-01-19T21:04:17.648Z,4.88
2023-01-19T21:06:45.438Z,5.63
2023-01-19T21:09:13.668Z,5.38
2023-01-19T21:11:40.888Z,5.53
2023-01-19T21:14:09.001Z,4.93
2023-01-19T21:16:37.873Z,5.60
2023-01-19T21:19:05.833Z,4.88
2023-01-19T21:21:32.653Z,4.45
2023-01-19T21:24:03.502Z,4.80
2023-01-19T21:26:31.553Z,4.47
2023-01-19T21:28:59.729Z,4.40
2023-01-19T21:31:28.279Z,5.18
2023-01-19T21:33:56.382Z,5.07
2023-01-19T21:36:24.721Z,5.95
2023-01-19T21:38:52.407Z,6.18
2023-01-19T21:41:19.462Z,6.05
2023-01-19T21:46:34.100Z,5.00
2023-01-19T21:49:04.209Z,4.95
2023-01-19T21:51:35.044Z,4.53
2023-01-19T21:54:04.684Z,5.47
2023-01-19T21:56:31.871Z,5.25
2023-01-19T21:59:02.334Z,5.80
2023-01-19T22:01:29.554Z,5.13
2023-01-19T22:03:57.663Z,5.38
2023-01-19T22:06:26.151Z,6.47
2023-01-19T22:08:58.598Z,3.85
2023-01-19T22:11:25.582Z,6.32
2023-01-19T22:16:21.466Z,4.10
2023-01-19T22:18:59.333Z,5.72
2023-01-19T22:21:35.069Z,3.85
2023-01-19T22:24:04.153Z,4.65
2023-01-19T22:26:32.215Z,2.90
2023-01-19T22:29:01.008Z,5.03
2023-01-19T22:31:29.390Z,5.15
2023-01-19T22:33:57.100Z,5.53
2023-01-19T22:36:26.793Z,3.75
2023-01-19T22:39:02.368Z,4.78
2023-01-19T22:41:38.270Z,4.43
2023-01-19T22:44:07.440Z,5.35
2023-01-19T22:46:36.501Z,4.00
2023-01-19T22:49:05.179Z,5.35
2023-01-19T22:51:32.493Z,5.90
2023-01-19T22:54:00.837Z,7.07
2023-01-19T22:56:31.833Z,6.22
2023-01-19T22:59:06.094Z,6.15
2023-01-19T23:01:36.788Z,6.93
2023-01-19T23:04:05.610Z,6.22
2023-01-19T23:06:35.712Z,6.35
2023-01-19T23:09:09.951Z,5.45
2023-01-19T23:11:40.664Z,7.22
2023-01-19T23:14:10.225Z,6.90
2023-01-19T23:16:37.482Z,6.55
2023-01-19T23:19:04.617Z,6.00
2023-01-19T23:21:32.508Z,6.55
2023-01-19T23:24:01.666Z,5.57
2023-01-19T23:26:31.702Z,6.78
2023-01-19T23:29:01.071Z,4.95
2023-01-19T23:31:31.002Z,6.38
2023-01-19T23:34:01.470Z,6.45
2023-01-19T23:36:30.264Z,7.93
2023-01-19T23:38:58.907Z,8.95
2023-01-19T23:41:27.996Z,9.20
2023-01-19T23:43:54.950Z,10.93
2023-01-19T23:48:49.454Z,6.47
2023-01-19T23:51:22.297Z,7.60
2023-01-19T23:53:49.798Z,7.15
2023-01-19T23:56:18.363Z,6.68
2023-01-19T23:59:01.874Z,6.55
